Time;durP1;ratioP1;P1;durP2;ratioP2;P2;SDS_P1;SDS_P2;PMS_P1;PMS_P2;Temp;Humidity;BMP_temperature;BMP_pressure;BME280_temperature;BME280_humidity;BME280_pressure;Samples;Min_cycle;Max_cycle;Signal;HPM_P1;HPM_P2
2023/06/13 00:01:03;;;;;;;5.90;4.00;;;;;;;19.88;70.50;100677.50;5009339;28;21018;-93
2023/06/13 00:03:29;;;;;;;4.88;3.80;;;;;;;20.00;70.28;100669.41;5043449;28;20383;-94
2023/06/13 00:06:01;;;;;;;7.63;4.53;;;;;;;19.92;70.01;100654.44;5034113;28;20390;-93
2023/06/13 00:08:31;;;;;;;8.02;5.10;;;;;;;19.75;70.87;100681.19;5054945;28;20389;-95
2023/06/13 00:10:58;;;;;;;7.45;4.63;;;;;;;19.53;71.69;100677.41;5016772;28;20422;-92
2023/06/13 00:13:25;;;;;;;5.60;4.75;;;;;;;19.49;71.81;100669.78;4981813;28;20487;-93
2023/06/13 00:15:53;;;;;;;7.10;4.88;;;;;;;19.42;72.02;100676.31;4987562;28;20774;-92
2023/06/13 00:18:20;;;;;;;6.40;5.25;;;;;;;19.36;72.10;100675.38;4977648;28;20421;-90
2023/06/13 00:20:52;;;;;;;5.75;5.00;;;;;;;19.53;71.67;100675.50;4975080;28;20747;-89
2023/06/13 00:23:17;;;;;;;6.13;5.13;;;;;;;19.57;71.21;100673.19;4993431;28;20388;-86
2023/06/13 00:25:43;;;;;;;8.68;5.25;;;;;;;19.58;71.04;100667.59;4996364;28;20458;-86
2023/06/13 00:28:10;;;;;;;7.15;5.10;;;;;;;19.63;70.95;100669.59;4999407;28;20382;-86
2023/06/13 00:30:35;;;;;;;5.72;5.05;;;;;;;19.67;70.65;100676.13;5001209;28;20389;-85
2023/06/13 00:33:01;;;;;;;6.93;5.23;;;;;;;19.68;70.66;100672.41;5000171;28;20386;-84
2023/06/13 00:35:26;;;;;;;7.32;5.40;;;;;;;19.62;70.58;100670.63;4982792;28;20486;-84
2023/06/13 00:37:54;;;;;;;5.77;5.27;;;;;;;19.56;70.49;100667.00;4982439;28;20865;-83
2023/06/13 00:40:24;;;;;;;9.63;5.63;;;;;;;19.59;70.12;100668.41;4982495;28;20449;-84
2023/06/13 00:42:53;;;;;;;7.53;5.00;;;;;;;19.66;70.05;100675.31;4981681;28;20477;-85
2023/06/13 00:45:28;;;;;;;6.05;5.13;;;;;;;19.52;70.11;100670.38;4977039;28;20414;-84
2023/06/13 00:48:05;;;;;;;7.75;5.35;;;;;;;19.48;70.36;100668.16;4990955;28;20821;-85
2023/06/13 00:50:40;;;;;;;5.88;5.05;;;;;;;19.37;70.29;100665.44;5003787;28;20425;-84
2023/06/13 00:53:18;;;;;;;7.47;5.18;;;;;;;19.29;70.68;100670.06;4982849;28;20382;-84
2023/06/13 00:55:45;;;;;;;7.03;5.45;;;;;;;19.20;70.63;100657.22;5016619;28;20757;-83
2023/06/13 00:58:12;;;;;;;5.82;4.80;;;;;;;19.14;70.92;100667.00;5016266;28;20439;-83
2023/06/13 01:00:39;;;;;;;10.25;4.82;;;;;;;18.87;71.50;100659.28;5014777;28;20396;-82
2023/06/13 01:03:10;;;;;;;5.57;4.78;;;;;;;18.69;72.11;100659.25;5013682;28;20406;-82
2023/06/13 01:05:37;;;;;;;6.43;5.18;;;;;;;18.77;71.91;100658.97;5015387;28;20872;-81
2023/06/13 01:08:09;;;;;;;5.30;4.70;;;;;;;18.66;72.17;100657.03;5015119;28;20853;-82
2023/06/13 01:10:36;;;;;;;6.18;4.60;;;;;;;18.51;72.23;100655.56;5014325;28;20412;-80
2023/06/13 01:13:28;;;;;;;7.00;4.38;;;;;;;18.47;72.55;100650.84;5014747;28;20392;-79
2023/06/13 01:16:08;;;;;;;7.00;4.45;;;;;;;18.47;72.16;100657.03;4996981;28;20395;-81
2023/06/13 01:18:37;;;;;;;4.93;4.10;;;;;;;18.24;72.58;100646.97;5015211;28;20396;-81
2023/06/13 01:21:04;;;;;;;5.35;4.05;;;;;;;18.29;72.63;100649.81;5015735;28;20762;-81
2023/06/13 01:23:52;;;;;;;4.93;3.60;;;;;;;18.41;72.24;100652.56;5015532;28;20399;-81
2023/06/13 01:26:45;;;;;;;6.70;4.20;;;;;;;18.48;71.72;100652.50;4998548;28;20430;-81
2023/06/13 01:29:12;;;;;;;5.00;3.40;;;;;;;18.22;71.96;100661.63;5016026;28;20555;-80
2023/06/13 01:31:41;;;;;;;4.75;3.70;;;;;;;18.18;72.45;100655.09;5015551;28;20388;-80
2023/06/13 01:34:07;;;;;;;4.13;3.40;;;;;;;18.16;72.12;100644.56;5015259;28;20396;-79
2023/06/13 01:36:33;;;;;;;6.88;3.47;;;;;;;18.04;72.33;100644.50;5014606;28;20405;-78
2023/06/13 01:38:58;;;;;;;11.45;3.70;;;;;;;18.15;71.99;100653.69;5014074;28;20400;-78
2023/06/13 01:41:23;;;;;;;5.37;3.00;;;;;;;17.86;72.13;100655.16;5013792;28;20464;-78
2023/06/13 01:43:49;;;;;;;4.20;2.90;;;;;;;17.87;72.40;100659.50;5015795;28;20388;-79
2023/06/13 01:46:33;;;;;;;6.60;3.30;;;;;;;17.89;71.92;100655.53;5015430;28;20418;-79
2023/06/13 01:49:48;;;;;;;4.63;2.72;;;;;;;17.74;72.27;100660.41;4996274;28;20380;-79
2023/06/13 01:52:23;;;;;;;5.60;2.50;;;;;;;17.71;71.95;100661.66;5004824;28;20415;-79
2023/06/13 01:55:00;;;;;;;5.53;2.70;;;;;;;17.76;71.56;100652.97;5010098;28;20390;-80
2023/06/13 01:57:30;;;;;;;4.22;2.53;;;;;;;17.67;71.70;100665.00;5010985;28;20420;-79
2023/06/13 01:59:56;;;;;;;4.47;2.88;;;;;;;17.39;71.85;100663.53;5011991;28;20396;-79
2023/06/13 02:02:23;;;;;;;3.95;2.45;;;;;;;17.36;71.91;100663.97;5015049;28;20392;-80
2023/06/13 02:04:49;;;;;;;4.00;2.30;;;;;;;17.26;71.96;100680.50;5014213;28;20396;-80
2023/06/13 02:07:15;;;;;;;3.90;2.22;;;;;;;17.22;71.98;100662.41;5006486;28;20853;-80
2023/06/13 02:09:41;;;;;;;4.80;2.22;;;;;;;17.26;71.60;100683.19;5013053;28;20490;-80
2023/06/13 02:12:07;;;;;;;6.00;2.17;;;;;;;17.29;71.18;100671.25;5013207;28;20388;-79
2023/06/13 02:14:32;;;;;;;4.47;1.90;;;;;;;17.10;71.42;100672.97;5013114;28;20398;-80
2023/06/13 02:16:59;;;;;;;5.17;2.10;;;;;;;16.97;71.75;100658.63;5012990;28;20388;-79
2023/06/13 02:19:25;;;;;;;3.25;2.00;;;;;;;17.11;71.70;100678.13;5012924;28;20388;-79
2023/06/13 02:21:51;;;;;;;2.85;1.85;;;;;;;17.22;70.88;100673.94;5012226;28;20379;-79
2023/06/13 02:24:18;;;;;;;4.45;1.90;;;;;;;17.15;70.75;100678.50;5012772;28;20423;-80
2023/06/13 02:26:44;;;;;;;6.30;2.15;;;;;;;17.10;70.91;100681.81;5012515;28;20416;-79
2023/06/13 02:29:10;;;;;;;3.33;1.95;;;;;;;17.06;70.77;100680.63;5011684;28;21130;-78
2023/06/13 02:31:37;;;;;;;8.37;2.27;;;;;;;16.94;70.74;100668.94;5011952;28;20392;-78
2023/06/13 02:34:03;;;;;;;6.13;2.13;;;;;;;16.92;70.94;100682.53;5012427;28;20387;-78
2023/06/13 02:36:29;;;;;;;6.57;2.28;;;;;;;17.03;70.64;100686.38;5012093;28;20454;-78
2023/06/13 02:38:54;;;;;;;3.45;1.95;;;;;;;17.10;70.46;100691.72;5012193;28;20431;-79
2023/06/13 02:41:20;;;;;;;3.00;2.10;;;;;;;16.97;70.68;100684.56;4995013;28;20391;-78
2023/06/13 02:43:45;;;;;;;3.67;2.03;;;;;;;17.08;70.03;100689.25;5011883;28;20403;-78
2023/06/13 02:46:11;;;;;;;4.33;2.27;;;;;;;16.89;70.50;100684.81;5011020;28;20416;-78
2023/06/13 02:48:36;;;;;;;5.25;2.05;;;;;;;16.89;70.53;100696.34;5008029;28;20398;-78
2023/06/13 02:51:03;;;;;;;5.13;2.10;;;;;;;16.93;70.69;100686.03;4993785;28;20400;-78
2023/06/13 02:53:29;;;;;;;5.47;2.13;;;;;;;17.02;70.44;100689.31;5011095;28;20450;-79
2023/06/13 02:55:54;;;;;;;4.23;2.00;;;;;;;17.11;70.15;100696.88;5011649;28;20831;-78
2023/06/13 02:58:20;;;;;;;5.00;2.20;;;;;;;17.07;69.73;100705.53;5011324;28;20906;-78
2023/06/13 03:00:45;;;;;;;5.13;2.20;;;;;;;16.73;70.36;100696.81;5011833;28;20857;-78
2023/06/13 03:03:11;;;;;;;4.80;2.10;;;;;;;16.79;70.32;100702.13;4993985;28;20895;-77
2023/06/13 03:05:37;;;;;;;5.00;2.20;;;;;;;16.80;69.94;100703.78;5010733;28;20404;-79
2023/06/13 03:08:04;;;;;;;4.50;2.17;;;;;;;16.65;70.09;100710.41;5011726;28;20396;-77
2023/06/13 03:10:29;;;;;;;5.55;2.20;;;;;;;16.67;69.76;100714.50;5013281;28;20388;-78
2023/06/13 03:12:55;;;;;;;5.97;1.90;;;;;;;16.61;69.37;100716.16;5013787;28;20472;-78
2023/06/13 03:15:20;;;;;;;4.63;2.30;;;;;;;16.57;69.39;100720.31;5014669;28;20398;-78
2023/06/13 03:17:46;;;;;;;7.20;2.30;;;;;;;16.73;68.94;100729.75;5014063;28;20463;-78
2023/06/13 03:20:11;;;;;;;6.07;2.23;;;;;;;16.75;68.76;100726.84;5013971;28;20868;-77
2023/06/13 03:22:37;;;;;;;6.77;2.40;;;;;;;16.75;68.76;100730.34;5014813;28;20781;-78
2023/06/13 03:25:04;;;;;;;4.57;1.95;;;;;;;16.81;68.58;100726.00;5015087;28;20372;-80
2023/06/13 03:27:30;;;;;;;2.83;2.05;;;;;;;16.60;68.82;100735.09;5012158;28;20420;-79
2023/06/13 03:29:55;;;;;;;7.53;2.40;;;;;;;16.56;69.02;100734.69;4993775;28;20477;-78
2023/06/13 03:32:21;;;;;;;4.87;2.03;;;;;;;16.54;68.99;100726.06;4998335;28;20971;-79
2023/06/13 03:34:47;;;;;;;3.60;2.00;;;;;;;16.69;68.53;100738.38;4996741;28;20398;-78
2023/06/13 03:37:13;;;;;;;5.05;2.22;;;;;;;16.78;68.56;100746.00;4999971;28;20392;-78
2023/06/13 03:39:38;;;;;;;6.87;2.23;;;;;;;16.75;68.89;100743.72;4995150;28;20392;-79
2023/06/13 03:42:04;;;;;;;5.75;2.25;;;;;;;16.73;68.40;100753.00;4998287;28;20401;-79
2023/06/13 03:44:30;;;;;;;5.22;2.22;;;;;;;16.69;68.43;100743.75;5011934;28;20388;-78
2023/06/13 03:46:56;;;;;;;5.97;2.13;;;;;;;16.64;68.51;100747.06;5012164;28;20412;-78
2023/06/13 03:49:23;;;;;;;3.75;2.10;;;;;;;16.38;68.36;100743.38;4992287;28;20460;-77
2023/06/13 03:51:48;;;;;;;3.72;1.80;;;;;;;16.27;68.00;100751.22;5011730;28;20416;-78
2023/06/13 03:54:14;;;;;;;6.22;2.00;;;;;;;16.29;67.80;100747.28;5013904;28;20431;-78
2023/06/13 03:56:40;;;;;;;7.80;2.13;;;;;;;16.15;67.82;100761.69;5017943;28;20412;-79
2023/06/13 03:59:05;;;;;;;6.00;2.07;;;;;;;16.17;68.23;100760.47;5015518;28;20392;-79
2023/06/13 04:01:31;;;;;;;4.53;2.27;;;;;;;16.46;67.50;100757.56;5013257;28;20388;-79
2023/06/13 04:03:57;;;;;;;3.60;1.93;;;;;;;16.45;67.37;100756.75;5013828;28;20388;-79
2023/06/13 04:06:23;;;;;;;6.00;2.20;;;;;;;16.51;67.03;100758.63;5012587;28;20455;-78
2023/06/13 04:08:48;;;;;;;3.70;2.10;;;;;;;16.47;67.13;100760.03;4995763;28;20450;-78
2023/06/13 04:11:14;;;;;;;3.63;1.80;;;;;;;16.56;67.04;100763.31;5013551;28;20387;-79
2023/06/13 04:13:41;;;;;;;5.00;2.20;;;;;;;16.66;66.88;100763.72;5014705;28;20486;-78
2023/06/13 04:16:06;;;;;;;3.63;1.97;;;;;;;16.66;66.81;100762.91;5014801;28;20392;-78
2023/06/13 04:18:33;;;;;;;4.07;2.00;;;;;;;16.67;66.84;100772.56;5014225;28;20544;-79
2023/06/13 04:20:59;;;;;;;3.67;1.80;;;;;;;16.54;66.70;100765.38;5013605;28;20388;-78
2023/06/13 04:23:27;;;;;;;3.72;1.80;;;;;;;16.42;67.04;100768.72;4995469;28;20418;-78
2023/06/13 04:25:53;;;;;;;5.57;2.75;;;;;;;16.32;67.06;100767.47;5012283;28;20411;-79
2023/06/13 04:28:18;;;;;;;4.70;1.80;;;;;;;16.38;66.99;100774.66;5012631;28;20479;-78
2023/06/13 04:30:47;;;;;;;3.90;2.00;;;;;;;16.55;66.78;100775.88;5012954;28;20392;-78
2023/06/13 04:33:17;;;;;;;3.33;2.00;;;;;;;16.72;66.50;100781.63;4996663;28;20398;-79
2023/06/13 04:35:46;;;;;;;6.50;1.98;;;;;;;16.79;66.36;100774.41;4997246;28;20396;-79
2023/06/13 04:38:13;;;;;;;3.30;1.80;;;;;;;16.74;66.36;100776.06;5014602;28;20500;-79
2023/06/13 04:40:39;;;;;;;4.97;1.85;;;;;;;16.73;66.26;100787.81;5015175;28;20471;-78
2023/06/13 04:43:05;;;;;;;5.35;2.20;;;;;;;16.76;66.21;100790.91;5014878;28;20376;-78
2023/06/13 04:45:33;;;;;;;5.40;2.42;;;;;;;16.88;66.11;100800.97;5014392;28;20462;-78
2023/06/13 04:48:01;;;;;;;4.53;2.13;;;;;;;16.89;65.83;100791.91;5013737;28;20424;-78
2023/06/13 04:50:28;;;;;;;4.45;2.00;;;;;;;16.79;65.48;100792.31;5013654;28;20395;-78
2023/06/13 04:52:55;;;;;;;4.10;2.13;;;;;;;16.74;65.77;100802.81;5012932;28;20730;-78
2023/06/13 04:55:21;;;;;;;4.97;2.20;;;;;;;16.88;65.79;100806.34;5013185;28;20842;-78
2023/06/13 04:57:47;;;;;;;6.03;2.10;;;;;;;16.96;65.50;100793.56;5014451;28;20482;-78
2023/06/13 05:00:14;;;;;;;6.97;2.28;;;;;;;16.84;65.36;100802.44;5013744;28;20396;-78
2023/06/13 05:02:41;;;;;;;6.22;2.30;;;;;;;16.98;65.39;100804.06;5013850;28;20722;-78
2023/06/13 05:05:07;;;;;;;4.70;2.40;;;;;;;16.98;65.25;100804.06;5012177;28;20396;-79
2023/06/13 05:07:34;;;;;;;4.75;2.25;;;;;;;16.93;65.16;100804.69;5012507;28;20427;-78
2023/06/13 05:10:03;;;;;;;4.97;2.53;;;;;;;16.95;65.01;100810.63;4982005;28;20427;-78
2023/06/13 05:12:29;;;;;;;4.43;2.00;;;;;;;16.96;64.83;100816.81;5013252;28;20447;-77
2023/06/13 05:14:54;;;;;;;3.10;1.80;;;;;;;16.99;64.58;100808.38;5012410;28;20388;-77
2023/06/13 05:17:20;;;;;;;4.57;2.30;;;;;;;16.97;64.59;100816.59;5013391;28;20380;-76
2023/06/13 05:19:46;;;;;;;7.00;2.30;;;;;;;16.86;64.78;100809.22;5013119;28;20399;-78
2023/06/13 05:22:12;;;;;;;6.33;2.23;;;;;;;16.92;64.86;100802.19;4996380;28;20407;-79
2023/06/13 05:24:37;;;;;;;4.50;2.20;;;;;;;16.93;65.01;100803.88;5013501;28;20396;-77
2023/06/13 05:27:03;;;;;;;5.70;2.20;;;;;;;16.99;64.46;100805.69;5013054;28;20937;-78
2023/06/13 05:29:29;;;;;;;5.60;2.00;;;;;;;16.74;64.89;100808.19;5017644;28;20420;-78
2023/06/13 05:31:55;;;;;;;5.28;2.22;;;;;;;16.89;64.88;100808.81;5013775;28;20738;-78
2023/06/13 05:34:21;;;;;;;6.07;2.40;;;;;;;17.03;64.53;100809.59;5014285;28;20875;-79
2023/06/13 05:36:47;;;;;;;5.78;2.15;;;;;;;17.11;64.26;100812.03;5013419;28;20468;-78
2023/06/13 05:39:13;;;;;;;6.47;2.10;;;;;;;17.17;64.11;100819.22;5012295;28;20387;-79
2023/06/13 05:41:42;;;;;;;6.45;2.70;;;;;;;17.28;64.24;100815.06;5012999;28;20450;-78
2023/06/13 05:44:08;;;;;;;4.18;2.30;;;;;;;17.32;64.14;100820.81;5013034;28;20857;-78
2023/06/13 05:46:34;;;;;;;3.55;2.42;;;;;;;17.34;63.91;100814.25;5014016;28;20418;-78
2023/06/13 05:48:59;;;;;;;5.00;2.20;;;;;;;17.26;63.65;100832.41;5015500;28;20857;-79
2023/06/13 05:51:25;;;;;;;3.80;2.00;;;;;;;17.17;63.64;100818.41;5012968;28;20916;-78
2023/06/13 05:53:50;;;;;;;5.43;2.07;;;;;;;17.19;63.20;100821.69;5012539;28;20753;-79
2023/06/13 05:56:16;;;;;;;2.65;2.00;;;;;;;17.10;63.21;100815.75;5012509;28;20438;-79
2023/06/13 05:58:43;;;;;;;4.03;2.13;;;;;;;17.25;63.22;100818.19;5013005;28;20706;-78
2023/06/13 06:01:10;;;;;;;3.50;2.20;;;;;;;17.20;63.24;100813.47;5013385;28;20466;-79
2023/06/13 06:03:38;;;;;;;3.60;2.10;;;;;;;17.11;63.26;100816.59;5013931;28;20503;-78
2023/06/13 06:06:04;;;;;;;2.13;1.75;;;;;;;17.02;62.99;100816.00;5012276;28;20423;-79
2023/06/13 06:08:30;;;;;;;4.37;1.93;;;;;;;17.05;63.05;100817.41;5012014;28;20396;-79
2023/06/13 06:10:56;;;;;;;6.68;2.30;;;;;;;17.26;63.08;100829.72;5012567;28;20551;-78
2023/06/13 06:13:22;;;;;;;3.17;2.10;;;;;;;17.14;62.77;100830.38;5012473;28;20476;-78
2023/06/13 06:15:47;;;;;;;3.47;2.05;;;;;;;16.93;63.26;100810.03;5013261;28;20549;-79
2023/06/13 06:18:13;;;;;;;4.53;2.00;;;;;;;17.07;63.30;100812.66;5013806;28;20391;-80
2023/06/13 06:20:38;;;;;;;6.43;2.80;;;;;;;17.30;63.08;100820.22;5012913;28;20392;-79
2023/06/13 06:23:04;;;;;;;5.87;2.27;;;;;;;17.42;62.74;100820.41;5012444;28;20384;-79
2023/06/13 06:25:29;;;;;;;4.32;2.28;;;;;;;17.36;62.93;100822.06;5014067;28;20384;-80
2023/06/13 06:27:56;;;;;;;5.38;2.33;;;;;;;17.30;62.45;100828.25;5014197;28;20389;-78
2023/06/13 06:30:21;;;;;;;3.95;2.15;;;;;;;17.35;62.61;100829.25;4997735;28;20381;-78
2023/06/13 06:32:47;;;;;;;3.83;2.17;;;;;;;17.52;62.43;100834.97;5017940;28;20384;-78
2023/06/13 06:35:14;;;;;;;3.20;1.90;;;;;;;17.54;62.36;100838.28;5013417;28;20442;-78
2023/06/13 06:37:40;;;;;;;5.72;2.40;;;;;;;17.45;61.98;100831.50;4996239;28;20396;-80
2023/06/13 06:40:07;;;;;;;5.35;2.25;;;;;;;17.22;61.77;100833.88;5012576;28;20422;-78
2023/06/13 06:42:33;;;;;;;6.22;3.00;;;;;;;17.23;61.83;100843.53;5012957;28;20376;-78
2023/06/13 06:44:59;;;;;;;5.40;2.00;;;;;;;17.28;61.90;100841.84;4994296;28;20425;-78
2023/06/13 06:47:24;;;;;;;4.22;1.92;;;;;;;17.34;61.87;100842.88;5014128;28;20852;-78
2023/06/13 06:49:51;;;;;;;2.63;2.00;;;;;;;17.35;61.63;100831.94;5010645;28;20669;-80
2023/06/13 06:52:17;;;;;;;5.82;2.30;;;;;;;17.49;61.75;100845.31;5003168;28;20869;-78
2023/06/13 06:54:42;;;;;;;2.75;2.10;;;;;;;17.51;61.83;100844.03;5002663;28;20394;-79
2023/06/13 06:57:08;;;;;;;3.37;2.10;;;;;;;17.60;61.79;100847.31;4989006;28;20431;-79
2023/06/13 06:59:33;;;;;;;4.55;2.20;;;;;;;17.59;61.63;100848.34;4997332;28;20808;-77
2023/06/13 07:01:59;;;;;;;7.07;2.37;;;;;;;17.56;61.75;100846.91;4985308;28;20815;-79
2023/06/13 07:04:25;;;;;;;3.80;2.10;;;;;;;17.53;61.62;100850.00;5006125;28;20419;-79
2023/06/13 07:06:51;;;;;;;5.40;2.10;;;;;;;17.51;61.70;100840.56;5000477;28;20401;-78
2023/06/13 07:09:16;;;;;;;4.28;2.40;;;;;;;17.52;61.88;100851.06;4999156;28;20465;-78
2023/06/13 07:11:42;;;;;;;3.50;2.40;;;;;;;17.50;62.05;100855.81;5000505;28;20491;-79
2023/06/13 07:14:08;;;;;;;4.13;2.25;;;;;;;17.56;61.81;100846.09;5015667;28;20384;-77
2023/06/13 07:16:33;;;;;;;4.93;2.40;;;;;;;17.47;62.17;100842.84;4996767;28;20376;-79
2023/06/13 07:18:58;;;;;;;9.35;2.55;;;;;;;17.61;62.14;100856.16;5013567;28;20418;-77
2023/06/13 07:21:24;;;;;;;6.53;2.30;;;;;;;17.75;62.09;100849.72;5019228;28;20719;-79
2023/06/13 07:23:50;;;;;;;2.72;2.20;;;;;;;17.67;62.04;100856.16;5012186;28;20425;-81
2023/06/13 07:26:15;;;;;;;5.97;2.50;;;;;;;17.57;62.32;100850.41;5011455;28;20951;-80
2023/06/13 07:28:41;;;;;;;7.20;3.20;;;;;;;17.56;62.49;100849.59;5015767;28;20384;-80
2023/06/13 07:31:07;;;;;;;3.75;2.50;;;;;;;17.49;62.88;100856.84;5015551;28;20792;-79
2023/06/13 07:33:32;;;;;;;7.60;2.80;;;;;;;17.48;63.21;100852.50;4996930;28;20407;-80
2023/06/13 07:35:58;;;;;;;3.78;2.50;;;;;;;17.50;63.10;100847.78;5006293;28;20777;-80
2023/06/13 07:38:24;;;;;;;4.47;2.60;;;;;;;17.57;63.23;100845.06;5003403;28;20505;-79
2023/06/13 07:40:50;;;;;;;4.53;2.75;;;;;;;17.54;63.57;100849.00;5008919;28;20396;-79
2023/06/13 07:43:16;;;;;;;4.35;2.50;;;;;;;17.62;63.68;100842.56;5000247;28;20460;-79
2023/06/13 07:45:41;;;;;;;5.72;2.70;;;;;;;17.69;63.72;100839.84;5002098;28;20419;-79
2023/06/13 07:48:07;;;;;;;4.73;2.57;;;;;;;17.66;63.76;100843.75;5004328;28;20405;-84
2023/06/13 07:50:34;;;;;;;5.43;2.60;;;;;;;17.62;64.21;100844.41;5001707;28;20884;-84
2023/06/13 07:53:00;;;;;;;7.78;2.83;;;;;;;17.66;64.08;100846.44;4994975;28;20412;-82
2023/06/13 07:55:26;;;;;;;5.20;3.08;;;;;;;17.67;64.29;100847.28;5006365;28;20534;-80
2023/06/13 07:57:51;;;;;;;5.10;2.60;;;;;;;17.62;64.27;100850.59;4995099;28;20506;-83
2023/06/13 08:00:17;;;;;;;8.67;6.53;;;;;;;17.54;64.39;100848.19;5000493;28;20467;-83
2023/06/13 08:02:44;;;;;;;9.73;7.65;;;;;;;17.58;64.53;100852.88;5005408;28;20395;-79
2023/06/13 08:05:11;;;;;;;6.95;3.70;;;;;;;17.50;64.60;100846.94;5005908;28;20923;-79
2023/06/13 08:07:37;;;;;;;8.32;4.10;;;;;;;17.48;64.66;100849.00;4999534;28;20436;-78
2023/06/13 08:10:03;;;;;;;4.07;2.90;;;;;;;17.48;65.16;100855.19;5013316;28;20432;-78
2023/06/13 08:12:28;;;;;;;6.93;4.18;;;;;;;17.72;65.03;100853.66;4996564;28;20399;-80
2023/06/13 08:14:53;;;;;;;5.88;3.03;;;;;;;17.71;64.84;100843.94;5013680;28;20860;-79
2023/06/13 08:17:19;;;;;;;5.77;3.53;;;;;;;17.78;64.85;100851.97;5011158;28;20403;-80
2023/06/13 08:19:48;;;;;;;5.18;3.17;;;;;;;17.73;65.20;100860.63;5010496;28;20386;-79
2023/06/13 08:22:14;;;;;;;5.45;3.20;;;;;;;17.68;65.17;100863.16;5007610;28;20741;-79
2023/06/13 08:24:40;;;;;;;5.78;3.60;;;;;;;17.89;65.23;100866.59;4999878;28;20413;-79
2023/06/13 08:27:10;;;;;;;5.28;3.05;;;;;;;17.86;64.95;100870.53;4985551;28;20507;-80
2023/06/13 08:29:36;;;;;;;4.05;2.70;;;;;;;17.69;64.60;100870.16;5012506;28;20475;-79
2023/06/13 08:32:02;;;;;;;5.53;3.30;;;;;;;17.80;65.12;100871.34;5026886;28;20383;-78
2023/06/13 08:34:28;;;;;;;6.07;3.30;;;;;;;17.89;64.82;100864.72;5003420;28;20402;-79
2023/06/13 08:36:54;;;;;;;6.87;2.90;;;;;;;18.07;64.69;100865.88;5011184;28;20406;-78
2023/06/13 08:39:20;;;;;;;4.43;3.03;;;;;;;18.15;64.45;100866.44;5014401;28;20435;-78
2023/06/13 08:41:46;;;;;;;4.93;3.08;;;;;;;18.23;64.45;100878.75;5014465;28;20395;-78
2023/06/13 08:44:12;;;;;;;6.78;3.08;;;;;;;18.12;63.86;100880.28;5013229;28;20770;-79
2023/06/13 08:46:37;;;;;;;4.10;2.93;;;;;;;18.07;63.72;100880.09;5010308;28;20485;-78
2023/06/13 08:49:03;;;;;;;3.60;2.80;;;;;;;18.13;64.10;100876.56;5000354;28;20394;-78
2023/06/13 08:51:30;;;;;;;5.82;3.58;;;;;;;18.26;64.17;100874.84;4994146;28;20385;-77
2023/06/13 08:53:59;;;;;;;5.55;3.30;;;;;;;18.22;64.03;100871.78;4995273;28;20396;-78
2023/06/13 08:56:28;;;;;;;6.32;4.00;;;;;;;18.27;63.89;100876.47;5014283;28;20406;-80
2023/06/13 08:59:00;;;;;;;10.15;3.78;;;;;;;18.22;64.12;100878.97;5013100;28;20753;-78
2023/06/13 09:01:27;;;;;;;6.30;3.50;;;;;;;18.22;63.89;100887.03;5012803;28;20408;-78
2023/06/13 09:03:55;;;;;;;8.10;3.80;;;;;;;18.27;64.06;100877.28;4989144;28;20471;-78
2023/06/13 09:06:21;;;;;;;5.25;3.50;;;;;;;18.29;63.83;100885.97;5011631;28;20423;-79
2023/06/13 09:08:47;;;;;;;4.10;3.00;;;;;;;18.29;63.77;100880.59;4998147;28;20396;-79
2023/06/13 09:11:14;;;;;;;7.75;3.85;;;;;;;18.36;64.19;100883.22;5016031;28;20407;-78
2023/06/13 09:13:40;;;;;;;8.45;3.70;;;;;;;18.51;64.40;100888.25;5016323;28;20505;-78
2023/06/13 09:16:06;;;;;;;6.90;3.75;;;;;;;18.39;64.53;100890.84;5012616;28;20427;-79
2023/06/13 09:18:36;;;;;;;7.22;3.80;;;;;;;18.39;64.67;100881.97;5013586;28;20495;-77
2023/06/13 09:21:02;;;;;;;6.28;3.60;;;;;;;18.41;64.82;100899.50;5012462;28;20392;-78
2023/06/13 09:23:30;;;;;;;6.28;4.07;;;;;;;18.39;64.47;100881.97;5009601;28;20865;-79
2023/06/13 09:25:58;;;;;;;7.95;3.80;;;;;;;18.42;64.04;100887.72;5013129;28;20395;-78
2023/06/13 09:28:43;;;;;;;7.82;3.60;;;;;;;18.40;63.99;100883.59;5002368;28;20403;-78
2023/06/13 09:31:10;;;;;;;8.18;3.65;;;;;;;18.45;64.38;100889.16;5016119;28;20403;-79
2023/06/13 09:33:36;;;;;;;8.63;3.92;;;;;;;18.48;64.21;100880.66;5013179;28;20387;-79
2023/06/13 09:36:04;;;;;;;5.55;3.58;;;;;;;18.58;63.93;100890.91;5011737;28;20388;-79
2023/06/13 09:38:34;;;;;;;4.97;3.20;;;;;;;18.68;63.94;100884.00;5012214;28;20402;-78
2023/06/13 09:41:02;;;;;;;6.18;3.40;;;;;;;18.75;63.54;100894.69;5012063;28;20483;-79
2023/06/13 09:43:28;;;;;;;7.50;3.50;;;;;;;18.54;62.99;100891.31;4997768;28;20424;-79
2023/06/13 09:45:54;;;;;;;6.43;3.42;;;;;;;18.56;63.09;100887.63;5012589;28;20426;-80
2023/06/13 09:48:21;;;;;;;5.65;3.60;;;;;;;18.62;62.76;100894.78;5012782;28;20382;-79
2023/06/13 09:50:47;;;;;;;8.93;3.80;;;;;;;18.66;62.74;100883.41;5007871;28;20420;-78
2023/06/13 09:53:13;;;;;;;7.15;4.13;;;;;;;18.75;62.53;100894.69;4983527;28;20759;-80
2023/06/13 09:55:38;;;;;;;9.70;4.10;;;;;;;18.63;62.76;100891.06;4974394;28;20400;-78
2023/06/13 09:58:05;;;;;;;7.93;4.13;;;;;;;18.67;62.72;100889.59;4993766;28;20490;-82
2023/06/13 10:00:31;;;;;;;5.90;3.88;;;;;;;18.71;62.28;100888.13;4996690;28;20417;-77
2023/06/13 10:02:56;;;;;;;5.63;4.28;;;;;;;18.78;62.65;100883.53;4985364;28;20454;-78
2023/06/13 10:05:23;;;;;;;10.50;4.10;;;;;;;18.73;62.60;100892.22;4992368;28;20400;-78
2023/06/13 10:07:49;;;;;;;6.18;3.75;;;;;;;18.82;62.70;100898.19;4971093;28;20452;-80
2023/06/13 10:10:14;;;;;;;7.13;3.90;;;;;;;18.83;62.17;100896.31;4997296;28;20428;-80
2023/06/13 10:12:46;;;;;;;4.65;3.35;;;;;;;18.61;62.32;100895.84;4994287;28;20411;-78
2023/06/13 10:15:19;;;;;;;7.25;3.75;;;;;;;18.52;62.98;100903.34;4997668;28;20400;-78
2023/06/13 10:17:46;;;;;;;6.75;3.90;;;;;;;18.70;62.69;100903.41;5000200;28;20394;-78
2023/06/13 10:20:15;;;;;;;5.47;3.72;;;;;;;18.61;62.31;100898.53;4979957;28;20407;-78
2023/06/13 10:22:40;;;;;;;6.20;3.53;;;;;;;18.77;62.42;100900.66;4989883;28;20494;-78
2023/06/13 10:25:08;;;;;;;8.03;3.70;;;;;;;18.77;61.84;100902.53;4985434;28;21109;-78
2023/06/13 10:27:41;;;;;;;4.88;3.60;;;;;;;18.63;61.95;100904.50;4991837;28;20478;-78
2023/06/13 10:30:29;;;;;;;6.28;3.72;;;;;;;18.63;61.98;100901.81;4993997;28;20420;-77
2023/06/13 10:33:00;;;;;;;8.13;4.07;;;;;;;18.60;62.11;100900.41;4994610;28;20406;-78
2023/06/13 10:36:02;;;;;;;6.20;4.25;;;;;;;18.67;61.79;100909.22;4991432;28;20400;-79
2023/06/13 10:38:48;;;;;;;7.07;3.83;;;;;;;18.60;61.91;100907.59;4992184;28;20399;-80
2023/06/13 10:41:44;;;;;;;9.13;4.53;;;;;;;18.49;61.89;100909.13;4991977;28;20397;-79
2023/06/13 10:44:16;;;;;;;7.65;4.07;;;;;;;18.61;62.01;100906.59;5011828;28;20395;-79
2023/06/13 10:46:42;;;;;;;6.60;3.95;;;;;;;18.64;61.65;100898.09;4993622;28;20403;-77
2023/06/13 10:49:13;;;;;;;7.77;3.73;;;;;;;18.71;61.62;100897.00;5011038;28;20447;-79
2023/06/13 10:51:42;;;;;;;5.57;3.88;;;;;;;18.69;61.44;100898.25;5011094;28;20458;-79
2023/06/13 10:54:11;;;;;;;5.13;3.80;;;;;;;18.73;61.77;100904.84;5013886;28;20392;-80
2023/06/13 10:56:39;;;;;;;4.47;3.25;;;;;;;18.76;62.05;100896.31;5013902;28;20439;-79
2023/06/13 10:59:16;;;;;;;5.93;3.30;;;;;;;18.78;61.62;100893.41;4995464;28;20384;-78
2023/06/13 11:01:44;;;;;;;7.53;3.43;;;;;;;18.88;61.51;100897.28;4995596;28;20392;-78
2023/06/13 11:04:20;;;;;;;5.80;3.23;;;;;;;18.88;61.50;100889.22;5002024;28;20396;-80
2023/06/13 11:07:23;;;;;;;4.72;3.17;;;;;;;18.80;61.47;100894.84;5024346;28;20417;-81
2023/06/13 11:10:02;;;;;;;6.67;2.93;;;;;;;18.86;61.57;100890.50;5017333;28;20741;-79
2023/06/13 11:12:29;;;;;;;4.97;3.03;;;;;;;18.84;61.52;100898.78;5012451;28;20423;-79
2023/06/13 11:14:58;;;;;;;9.00;4.00;;;;;;;18.59;61.61;100893.38;5011883;28;20376;-78
2023/06/13 11:17:24;;;;;;;4.90;3.75;;;;;;;18.66;61.79;100893.31;5012109;28;20493;-79
2023/06/13 11:19:53;;;;;;;6.22;3.20;;;;;;;18.68;61.61;100894.75;4995028;28;20882;-78
2023/06/13 11:22:21;;;;;;;5.47;3.28;;;;;;;18.75;61.08;100891.19;5020039;28;20388;-80
2023/06/13 11:24:48;;;;;;;5.32;3.35;;;;;;;18.72;61.13;100895.94;4985343;28;20497;-79
2023/06/13 11:27:16;;;;;;;6.22;3.30;;;;;;;18.82;61.21;100890.13;4991333;28;20417;-78